KMIW/MIW METAR and TAF weather

Enter ICAO airport designator
Station Type Date Time Source
KMIW METAR 2019/04/20 18:53 UTC NOAA

KMIW 201853Z AUTO 20009KT 10SM CLR 21/03 A2984 RMK AO2 SLP107 T02060033


Station Type Date Time Source
KMIW Decoded METAR 2019/04/20 18:53 UTC NOAA

MARSHALLTOWN MUNICIPAL AIRPORT , IA, United States (KMIW) 42-07N 92-55W 296M
Apr 20, 2019 - 02:53 PM EDT / 2019.04.20 1853 UTC
Wind: from the SSW (200 degrees) at 10 MPH (9 KT):0
Visibility: 10 mile(s):0
Sky conditions: clear
Temperature: 69.1 F (20.6 C)
Dew Point: 37.9 F (3.3 C)
Relative Humidity: 31%
Pressure (altimeter): 29.84 in. Hg (1010 hPa)
ob: KMIW 201853Z AUTO 20009KT 10SM CLR 21/03 A2984 RMK AO2 SLP107 T02060033
cycle: 19

Station Type Date Time Source
KMIW TAF UTC NOAA

Error!

Example: see airport list